Time;durP1;ratioP1;P1;durP2;ratioP2;P2;SDS_P1;SDS_P2;PMS_P1;PMS_P2;Temp;Humidity;BMP_temperature;BMP_pressure;BME280_temperature;BME280_humidity;BME280_pressure;Samples;Min_cycle;Max_cycle;Signal;HPM_P1;HPM_P2
2021/03/09 00:00:39;;;;;;;8.20;6.67;;;0.50;99.90;;;;;;5117326;28;20425;-83
2021/03/09 00:03:06;;;;;;;12.47;6.90;;;0.40;99.90;;;;;;5117582;28;20443;-83
2021/03/09 00:05:32;;;;;;;10.97;7.40;;;0.30;99.90;;;;;;5117452;28;20462;-83
2021/03/09 00:07:59;;;;;;;23.50;8.00;;;0.30;99.90;;;;;;5117582;28;20462;-83
2021/03/09 00:10:25;;;;;;;10.77;7.50;;;0.30;99.90;;;;;;5117497;28;20450;-82
2021/03/09 00:12:51;;;;;;;10.93;7.30;;;0.30;99.90;;;;;;5117401;28;20447;-83
2021/03/09 00:15:17;;;;;;;12.23;6.77;;;0.40;99.90;;;;;;5117288;28;20433;-88
2021/03/09 00:17:44;;;;;;;13.63;7.37;;;0.30;99.90;;;;;;5118262;28;20921;-88
2021/03/09 00:20:12;;;;;;;10.63;6.87;;;0.30;99.90;;;;;;5118135;28;20482;-88
2021/03/09 00:22:38;;;;;;;12.33;7.70;;;0.30;99.90;;;;;;5118159;28;20600;-89
2021/03/09 00:25:06;;;;;;;10.77;6.97;;;0.30;99.90;;;;;;5117778;28;20997;-84
2021/03/09 00:27:32;;;;;;;10.43;6.53;;;0.30;99.90;;;;;;5116776;28;20454;-84
2021/03/09 00:29:58;;;;;;;11.07;6.70;;;0.20;99.90;;;;;;5117227;28;20405;-87
2021/03/09 00:32:25;;;;;;;11.50;6.73;;;0.20;99.90;;;;;;5117365;28;20420;-84
2021/03/09 00:34:51;;;;;;;10.60;7.07;;;0.10;99.90;;;;;;5117253;28;20447;-88
2021/03/09 00:37:18;;;;;;;9.20;6.77;;;0.10;99.90;;;;;;5117572;28;20754;-88
2021/03/09 00:39:44;;;;;;;9.90;7.20;;;0.00;99.90;;;;;;5117652;28;20429;-88
2021/03/09 00:42:11;;;;;;;12.33;6.70;;;0.00;99.90;;;;;;5117321;28;20451;-88
2021/03/09 00:44:37;;;;;;;11.00;6.23;;;0.00;99.90;;;;;;5117086;28;20414;-87
2021/03/09 00:47:03;;;;;;;11.70;6.20;;;-0.10;99.90;;;;;;5117821;28;20478;-90
2021/03/09 00:49:30;;;;;;;9.43;6.97;;;-0.10;99.90;;;;;;5117995;28;20424;-90
2021/03/09 00:51:56;;;;;;;12.30;7.90;;;-0.10;99.90;;;;;;5117646;28;20790;-84
2021/03/09 00:54:23;;;;;;;11.27;6.60;;;-0.10;99.90;;;;;;5116646;28;20507;-84
2021/03/09 00:56:49;;;;;;;9.83;5.93;;;0.00;99.90;;;;;;5116546;28;20441;-83
2021/03/09 00:59:15;;;;;;;9.20;6.13;;;0.00;99.90;;;;;;5116478;27;20460;-83
2021/03/09 01:01:42;;;;;;;12.83;6.47;;;0.00;99.90;;;;;;5115720;28;20499;-83
2021/03/09 01:04:08;;;;;;;11.03;6.33;;;-0.10;99.90;;;;;;5116465;28;20451;-83
2021/03/09 01:06:34;;;;;;;11.53;6.50;;;-0.10;99.90;;;;;;5116346;28;20474;-83
2021/03/09 01:09:00;;;;;;;11.30;7.10;;;-0.10;99.90;;;;;;5116443;28;20426;-84
2021/03/09 01:11:27;;;;;;;9.30;6.87;;;-0.10;99.90;;;;;;5116331;28;20417;-84
2021/03/09 01:13:54;;;;;;;8.43;5.60;;;-0.10;99.90;;;;;;5116365;28;20425;-84
2021/03/09 01:16:20;;;;;;;12.80;7.00;;;-0.10;99.90;;;;;;5116302;28;21001;-84
2021/03/09 01:18:46;;;;;;;13.90;7.03;;;-0.10;99.90;;;;;;5116121;28;20985;-88
2021/03/09 01:21:12;;;;;;;10.10;6.50;;;-0.20;99.90;;;;;;5117190;28;20447;-88
2021/03/09 01:23:38;;;;;;;11.60;6.87;;;-0.20;99.90;;;;;;5116653;28;20418;-88
2021/03/09 01:26:05;;;;;;;12.13;7.13;;;-0.20;99.90;;;;;;5116477;28;20482;-88
2021/03/09 01:28:32;;;;;;;13.03;7.50;;;-0.20;99.90;;;;;;5116341;28;20500;-93
2021/03/09 01:30:58;;;;;;;13.63;6.73;;;-0.20;99.90;;;;;;5117183;28;20504;-93
2021/03/09 01:33:24;;;;;;;11.70;6.90;;;-0.20;99.90;;;;;;5117058;28;20462;-94
2021/03/09 01:35:51;;;;;;;11.40;7.17;;;-0.20;99.90;;;;;;5116620;28;20478;-88
2021/03/09 01:38:17;;;;;;;10.83;6.87;;;-0.20;99.90;;;;;;5116341;28;20455;-88
2021/03/09 01:40:43;;;;;;;9.77;7.07;;;-0.20;99.90;;;;;;5123914;28;20406;-94
2021/03/09 01:43:10;;;;;;;11.73;6.97;;;-0.20;99.90;;;;;;5140586;28;20417;-84
2021/03/09 01:45:37;;;;;;;14.00;7.43;;;-0.30;99.90;;;;;;5115516;28;20449;-83
2021/03/09 01:48:05;;;;;;;12.53;8.07;;;-0.30;99.90;;;;;;5115621;28;20450;-83
2021/03/09 01:50:34;;;;;;;9.90;6.27;;;-0.30;99.90;;;;;;5127252;28;20810;-94
2021/03/09 01:53:03;;;;;;;9.67;6.90;;;-0.30;99.90;;;;;;5116872;28;20500;-94
2021/03/09 01:55:30;;;;;;;13.57;7.87;;;-0.30;99.90;;;;;;5116551;28;20442;-94
2021/03/09 01:57:57;;;;;;;11.13;7.40;;;-0.30;99.90;;;;;;5116709;28;20455;-85
2021/03/09 02:00:23;;;;;;;10.80;7.00;;;-0.30;99.90;;;;;;5115413;28;20486;-84
2021/03/09 02:02:51;;;;;;;11.27;6.30;;;-0.40;99.90;;;;;;5115397;28;20441;-84
2021/03/09 02:05:17;;;;;;;11.63;6.90;;;-0.40;99.90;;;;;;5115230;28;20470;-83
2021/03/09 02:07:43;;;;;;;12.27;7.37;;;-0.50;99.90;;;;;;5115260;28;20426;-83
2021/03/09 02:10:12;;;;;;;15.60;7.80;;;-0.60;99.90;;;;;;5115125;28;20417;-83
2021/03/09 02:12:49;;;;;;;12.00;7.30;;;-0.60;99.90;;;;;;5115126;28;20422;-83
2021/03/09 02:15:26;;;;;;;11.10;7.70;;;-0.60;99.90;;;;;;5115081;28;21057;-93
2021/03/09 02:17:58;;;;;;;13.87;8.10;;;-0.50;99.90;;;;;;5115840;28;20411;-93
2021/03/09 02:20:50;;;;;;;12.80;7.07;;;-0.60;99.90;;;;;;5115824;28;20433;-84
2021/03/09 02:23:41;;;;;;;17.23;8.67;;;-0.60;99.90;;;;;;5114912;28;20451;-83
2021/03/09 02:26:32;;;;;;;14.13;7.20;;;-0.60;99.90;;;;;;5115815;28;20501;-90
2021/03/09 02:29:26;;;;;;;10.50;6.50;;;-0.60;99.90;;;;;;5115408;28;20478;-89
2021/03/09 02:31:57;;;;;;;15.47;8.07;;;-0.70;99.90;;;;;;5114769;28;20498;-83
2021/03/09 02:34:29;;;;;;;13.23;7.07;;;-0.70;99.90;;;;;;5114766;28;20441;-83
2021/03/09 02:36:58;;;;;;;9.97;6.50;;;-0.70;99.90;;;;;;5115394;28;20446;-90
2021/03/09 02:39:25;;;;;;;15.80;7.80;;;-0.80;99.90;;;;;;5115163;28;20450;-82
2021/03/09 02:41:55;;;;;;;10.93;7.20;;;-0.80;99.90;;;;;;5114575;28;20422;-82
2021/03/09 02:44:23;;;;;;;11.47;7.77;;;-0.80;99.90;;;;;;5116997;28;20413;-90
2021/03/09 02:46:50;;;;;;;11.60;7.77;;;-0.80;99.90;;;;;;5131048;28;20475;-90
2021/03/09 02:49:19;;;;;;;12.20;7.70;;;-0.80;99.90;;;;;;5130239;28;20406;-90
2021/03/09 02:51:48;;;;;;;12.90;7.80;;;-0.80;99.90;;;;;;5119797;28;20432;-89
2021/03/09 02:54:16;;;;;;;16.60;7.70;;;-0.80;99.90;;;;;;5114690;28;20923;-82
2021/03/09 02:56:44;;;;;;;10.27;7.50;;;-0.70;99.90;;;;;;5114219;28;20515;-82
2021/03/09 02:59:13;;;;;;;13.53;7.40;;;-0.70;99.90;;;;;;5114694;28;20461;-88
2021/03/09 03:01:43;;;;;;;14.30;7.60;;;-0.70;99.90;;;;;;5115469;28;20451;-87
2021/03/09 03:04:13;;;;;;;13.97;7.40;;;-0.80;99.90;;;;;;5115280;28;20425;-89
2021/03/09 03:06:42;;;;;;;11.50;7.30;;;-0.80;99.90;;;;;;5115747;28;20467;-89
2021/03/09 03:09:09;;;;;;;10.90;7.73;;;-0.80;99.90;;;;;;5114872;28;20406;-89
2021/03/09 03:11:35;;;;;;;14.30;7.43;;;-0.80;99.90;;;;;;5115019;28;20426;-89
2021/03/09 03:14:04;;;;;;;12.97;8.27;;;-0.80;99.90;;;;;;5115097;28;20418;-89
2021/03/09 03:16:32;;;;;;;19.70;8.70;;;-0.80;99.90;;;;;;5114883;28;20437;-89
2021/03/09 03:19:01;;;;;;;13.00;7.33;;;-0.80;99.90;;;;;;5114828;28;20464;-82
2021/03/09 03:21:29;;;;;;;14.67;7.70;;;-0.80;99.90;;;;;;5114048;28;20443;-82
2021/03/09 03:24:01;;;;;;;14.37;8.00;;;-0.90;99.90;;;;;;5113706;28;20406;-88
2021/03/09 03:26:29;;;;;;;12.73;7.53;;;-1.00;99.90;;;;;;5114982;28;20471;-88
2021/03/09 03:28:56;;;;;;;18.43;8.13;;;-1.00;99.90;;;;;;5113501;28;20479;-82
2021/03/09 03:31:23;;;;;;;10.03;6.80;;;-1.00;99.90;;;;;;5113836;28;20422;-82
2021/03/09 03:33:50;;;;;;;11.60;7.13;;;-1.00;99.90;;;;;;5113835;28;20443;-82
2021/03/09 03:36:17;;;;;;;15.20;7.80;;;-1.00;99.90;;;;;;5113724;28;20797;-82
2021/03/09 03:38:43;;;;;;;12.20;7.83;;;-1.00;99.90;;;;;;5113692;28;20451;-82
2021/03/09 03:41:11;;;;;;;13.33;8.03;;;-1.00;99.90;;;;;;5113482;28;20439;-83
2021/03/09 03:43:38;;;;;;;16.37;8.07;;;-1.00;99.90;;;;;;5114285;28;20435;-89
2021/03/09 03:46:05;;;;;;;13.30;7.30;;;-1.00;99.90;;;;;;5114993;28;20459;-89
2021/03/09 03:48:33;;;;;;;13.87;8.30;;;-1.00;99.90;;;;;;5114821;28;20414;-88
2021/03/09 03:51:00;;;;;;;14.23;8.47;;;-1.00;99.90;;;;;;5114661;28;20417;-89
2021/03/09 03:53:34;;;;;;;16.53;8.10;;;-1.10;99.90;;;;;;5114575;28;20477;-88
2021/03/09 03:56:16;;;;;;;14.40;7.97;;;-1.10;99.90;;;;;;5114042;28;21010;-82
2021/03/09 03:58:47;;;;;;;15.27;8.57;;;-1.10;99.90;;;;;;5113562;28;20401;-82
2021/03/09 04:01:15;;;;;;;14.23;8.20;;;-1.10;99.90;;;;;;5113668;28;20402;-82
2021/03/09 04:03:42;;;;;;;14.73;8.67;;;-1.10;99.90;;;;;;5113668;28;20460;-88
2021/03/09 04:06:09;;;;;;;12.10;8.23;;;-1.00;99.90;;;;;;5114318;28;20469;-87
2021/03/09 04:08:38;;;;;;;10.13;7.63;;;-1.00;99.90;;;;;;5114295;28;20455;-88
2021/03/09 04:11:06;;;;;;;13.53;8.63;;;-1.00;99.90;;;;;;5114002;28;20949;-87
2021/03/09 04:13:35;;;;;;;15.70;9.23;;;-1.00;99.90;;;;;;5113847;28;20431;-82
2021/03/09 04:16:03;;;;;;;13.97;8.27;;;-1.00;99.90;;;;;;5113717;28;20467;-82
2021/03/09 04:18:31;;;;;;;15.93;9.00;;;-1.00;99.90;;;;;;5113219;28;20773;-82
2021/03/09 04:20:59;;;;;;;14.03;9.00;;;-0.90;99.90;;;;;;5113352;28;20479;-82
2021/03/09 04:23:26;;;;;;;12.73;8.30;;;-0.90;99.90;;;;;;5113825;28;20447;-88
2021/03/09 04:25:53;;;;;;;11.47;7.70;;;-0.90;99.90;;;;;;5114121;28;20466;-88
2021/03/09 04:28:20;;;;;;;16.50;9.10;;;-0.90;99.90;;;;;;5113956;28;20433;-88
2021/03/09 04:30:48;;;;;;;13.57;8.70;;;-0.90;99.90;;;;;;5113806;28;20447;-82
2021/03/09 04:33:14;;;;;;;13.53;8.17;;;-0.90;99.90;;;;;;5112942;28;20945;-81
2021/03/09 04:35:41;;;;;;;14.20;8.50;;;-1.00;99.90;;;;;;5113860;28;20478;-82
2021/03/09 04:38:07;;;;;;;18.63;9.53;;;-1.00;99.90;;;;;;5117774;27;20486;-87
2021/03/09 04:40:35;;;;;;;12.30;8.47;;;-1.00;99.90;;;;;;5117576;28;20947;-87
2021/03/09 04:43:03;;;;;;;14.90;8.13;;;-1.00;99.90;;;;;;5117613;28;20443;-87
2021/03/09 04:45:29;;;;;;;11.73;7.80;;;-1.00;99.90;;;;;;5117557;28;20463;-87
2021/03/09 04:48:00;;;;;;;14.80;8.10;;;-1.00;99.90;;;;;;5117506;28;20422;-88
2021/03/09 04:50:27;;;;;;;11.83;7.63;;;-1.00;99.90;;;;;;5117582;28;20469;-88
2021/03/09 04:52:54;;;;;;;11.77;8.03;;;-1.10;99.90;;;;;;5117650;28;20426;-88
2021/03/09 04:55:23;;;;;;;14.37;8.37;;;-1.10;99.90;;;;;;5116868;28;20430;-87
2021/03/09 04:57:50;;;;;;;15.90;8.70;;;-1.20;99.90;;;;;;5117298;28;20433;-87
2021/03/09 05:00:19;;;;;;;15.07;8.90;;;-1.10;99.90;;;;;;5117119;28;21004;-87
2021/03/09 05:02:46;;;;;;;15.00;8.60;;;-1.10;99.90;;;;;;5117045;28;20443;-87
2021/03/09 05:05:15;;;;;;;17.47;9.50;;;-1.20;99.90;;;;;;5116458;28;20474;-81
2021/03/09 05:07:41;;;;;;;16.33;9.60;;;-1.20;99.90;;;;;;5116355;28;20422;-81
2021/03/09 05:10:09;;;;;;;13.50;8.33;;;-1.20;99.90;;;;;;5116684;28;20402;-86
2021/03/09 05:12:40;;;;;;;13.80;8.57;;;-1.30;99.90;;;;;;5116817;28;20453;-86
2021/03/09 05:15:07;;;;;;;13.63;9.50;;;-1.30;99.90;;;;;;5116556;27;20459;-81
2021/03/09 05:17:33;;;;;;;13.43;8.20;;;-1.30;99.90;;;;;;5116156;28;20422;-81
2021/03/09 05:20:00;;;;;;;15.90;9.37;;;-1.40;99.90;;;;;;5115773;28;20971;-81
2021/03/09 05:22:27;;;;;;;17.30;9.77;;;-1.40;99.90;;;;;;5116114;28;20425;-81
2021/03/09 05:24:53;;;;;;;17.70;9.70;;;-1.50;99.90;;;;;;5115963;28;20443;-81
2021/03/09 05:27:19;;;;;;;15.87;9.23;;;-1.50;99.90;;;;;;5115873;28;20426;-81
2021/03/09 05:29:46;;;;;;;15.37;9.50;;;-1.40;99.90;;;;;;5115964;28;20454;-81
2021/03/09 05:32:12;;;;;;;15.70;9.43;;;-1.40;99.90;;;;;;5115606;28;20955;-81
2021/03/09 05:34:38;;;;;;;15.70;8.80;;;-1.40;99.90;;;;;;5116137;28;20441;-86
2021/03/09 05:37:07;;;;;;;17.73;9.90;;;-1.40;99.90;;;;;;5116102;28;20467;-87
2021/03/09 05:39:35;;;;;;;16.77;9.20;;;-1.40;99.90;;;;;;5116352;28;20475;-87
2021/03/09 05:42:01;;;;;;;15.43;9.10;;;-1.40;99.90;;;;;;5116159;28;20455;-81
2021/03/09 05:44:27;;;;;;;16.33;9.80;;;-1.40;99.90;;;;;;5115671;27;20429;-81
2021/03/09 05:46:54;;;;;;;15.90;9.50;;;-1.30;99.90;;;;;;5115552;28;20463;-81
2021/03/09 05:49:20;;;;;;;17.30;10.13;;;-1.20;99.90;;;;;;5115363;28;20413;-81
2021/03/09 05:51:46;;;;;;;19.60;9.33;;;-1.20;99.90;;;;;;5115306;28;20442;-81
2021/03/09 05:54:12;;;;;;;14.90;9.97;;;-1.30;99.90;;;;;;5115106;28;20939;-80
2021/03/09 05:56:40;;;;;;;15.40;9.07;;;-1.20;99.90;;;;;;5115506;28;20463;-86
2021/03/09 05:59:06;;;;;;;17.77;10.60;;;-1.20;99.90;;;;;;5116290;28;20472;-85
2021/03/09 06:01:32;;;;;;;18.00;10.80;;;-1.30;99.90;;;;;;5115569;28;20409;-86
2021/03/09 06:03:59;;;;;;;13.87;9.50;;;-1.20;99.90;;;;;;5115657;28;20447;-87
2021/03/09 06:06:25;;;;;;;16.13;9.60;;;-1.20;99.90;;;;;;5115542;28;20445;-85
2021/03/09 06:08:51;;;;;;;15.27;10.20;;;-1.20;99.90;;;;;;5115678;28;20443;-86
2021/03/09 06:11:19;;;;;;;18.00;9.57;;;-1.10;99.90;;;;;;5115598;28;20443;-87
2021/03/09 06:13:47;;;;;;;21.77;10.00;;;-1.10;99.90;;;;;;5115583;28;20483;-87
2021/03/09 06:16:14;;;;;;;16.87;9.30;;;-1.00;99.90;;;;;;5115684;28;20490;-87
2021/03/09 06:18:52;;;;;;;16.37;9.00;;;-1.00;99.90;;;;;;5116172;28;20446;-87
2021/03/09 06:21:18;;;;;;;19.07;10.50;;;-0.90;99.90;;;;;;5115719;27;20424;-87
2021/03/09 06:23:45;;;;;;;16.10;10.10;;;-0.80;99.90;;;;;;5114963;28;20817;-80
2021/03/09 06:26:34;;;;;;;19.20;10.27;;;-0.80;99.90;;;;;;5114739;27;20452;-80
2021/03/09 06:29:12;;;;;;;18.07;10.60;;;-0.70;99.90;;;;;;5114348;28;20479;-80
2021/03/09 06:31:40;;;;;;;13.87;9.10;;;-0.60;99.90;;;;;;5114746;28;20491;-80
2021/03/09 06:34:23;;;;;;;15.60;9.63;;;-0.60;99.90;;;;;;5114405;28;20410;-80
2021/03/09 06:37:07;;;;;;;14.63;9.80;;;-0.50;99.90;;;;;;5114946;27;20437;-86
2021/03/09 06:39:51;;;;;;;15.90;9.97;;;-0.50;99.90;;;;;;5115041;28;20463;-80
2021/03/09 06:42:19;;;;;;;17.70;10.50;;;-0.40;99.90;;;;;;5114590;28;20416;-80
2021/03/09 06:44:51;;;;;;;15.40;10.10;;;-0.30;99.90;;;;;;5114263;28;21007;-86
2021/03/09 06:47:17;;;;;;;17.83;10.23;;;-0.30;99.90;;;;;;5114599;28;20418;-86
2021/03/09 06:49:54;;;;;;;14.03;9.70;;;-0.20;99.90;;;;;;5114963;27;20439;-86
2021/03/09 06:52:21;;;;;;;14.93;9.53;;;-0.10;99.90;;;;;;5115276;28;20797;-88
2021/03/09 06:54:49;;;;;;;19.33;10.50;;;0.00;99.90;;;;;;5114983;28;20429;-86
2021/03/09 06:57:16;;;;;;;16.00;9.63;;;0.10;99.90;;;;;;5114883;28;20447;-86
2021/03/09 06:59:43;;;;;;;14.43;9.97;;;0.20;99.90;;;;;;5114208;28;20453;-87
2021/03/09 07:02:12;;;;;;;15.70;9.20;;;0.20;99.90;;;;;;5115037;28;20429;-86
2021/03/09 07:04:39;;;;;;;13.97;9.43;;;0.20;99.90;;;;;;5114479;28;20416;-80
2021/03/09 07:07:06;;;;;;;15.07;9.50;;;0.30;99.90;;;;;;5114035;28;20442;-80
2021/03/09 07:09:33;;;;;;;14.13;8.90;;;0.30;99.90;;;;;;5114243;27;20421;-88
2021/03/09 07:12:01;;;;;;;16.17;9.50;;;0.40;99.90;;;;;;5115001;28;20455;-88
2021/03/09 07:14:30;;;;;;;15.50;9.33;;;0.60;99.90;;;;;;5114918;28;20489;-88
2021/03/09 07:16:59;;;;;;;14.23;9.83;;;0.70;99.90;;;;;;5114915;28;20474;-89
2021/03/09 07:19:32;;;;;;;16.40;9.87;;;0.80;99.90;;;;;;5114852;28;20485;-89
2021/03/09 07:21:58;;;;;;;17.53;9.83;;;0.90;99.90;;;;;;5114772;28;20431;-80
2021/03/09 07:24:25;;;;;;;16.30;9.90;;;1.00;99.90;;;;;;5113874;28;20474;-80
2021/03/09 07:26:57;;;;;;;15.97;9.77;;;1.10;99.90;;;;;;5113585;28;20455;-86
2021/03/09 07:29:27;;;;;;;14.63;10.10;;;1.40;99.90;;;;;;5113927;28;20477;-86
2021/03/09 07:31:56;;;;;;;14.47;9.83;;;1.50;99.90;;;;;;5113965;28;20431;-86
2021/03/09 07:34:24;;;;;;;15.17;9.00;;;1.70;99.90;;;;;;5114251;28;20443;-86
2021/03/09 07:36:51;;;;;;;14.90;10.23;;;1.80;99.90;;;;;;5114081;28;20467;-86
2021/03/09 07:39:18;;;;;;;17.23;10.50;;;2.00;99.90;;;;;;5114079;28;20478;-86
2021/03/09 07:41:46;;;;;;;17.53;10.10;;;2.20;99.90;;;;;;5113703;28;20454;-83
2021/03/09 07:44:13;;;;;;;14.63;10.77;;;2.40;99.90;;;;;;5114261;28;20462;-83
2021/03/09 07:46:39;;;;;;;15.70;10.17;;;2.60;99.90;;;;;;5115213;28;21012;-85
2021/03/09 07:49:06;;;;;;;17.17;9.90;;;2.70;99.90;;;;;;5114909;28;20454;-85
2021/03/09 07:51:32;;;;;;;19.30;11.10;;;2.80;99.90;;;;;;5114669;28;20451;-86
2021/03/09 07:54:14;;;;;;;15.47;9.43;;;2.90;99.90;;;;;;5114401;28;20435;-85
2021/03/09 07:57:13;;;;;;;15.53;10.20;;;2.80;99.90;;;;;;5114366;28;20471;-86
2021/03/09 07:59:55;;;;;;;17.20;12.07;;;2.90;99.90;;;;;;5115738;28;20475;-92
2021/03/09 08:02:53;;;;;;;17.70;11.43;;;3.00;99.90;;;;;;5114834;28;20437;-92
2021/03/09 08:05:21;;;;;;;19.57;11.00;;;3.10;99.90;;;;;;5115861;28;20450;-92
2021/03/09 08:07:56;;;;;;;15.90;10.63;;;3.10;99.90;;;;;;5114673;28;20415;-82
2021/03/09 08:10:44;;;;;;;15.90;11.17;;;3.20;99.90;;;;;;5113735;28;20442;-82
2021/03/09 08:13:27;;;;;;;13.73;10.67;;;3.30;99.90;;;;;;5117514;28;20449;-82
2021/03/09 08:16:29;;;;;;;21.60;11.47;;;3.30;99.90;;;;;;5117388;28;20470;-82
2021/03/09 08:18:57;;;;;;;20.33;11.83;;;3.40;99.90;;;;;;5117435;28;20484;-82
2021/03/09 08:21:51;;;;;;;19.20;11.33;;;3.60;99.90;;;;;;5117388;28;20426;-86
2021/03/09 08:24:18;;;;;;;16.90;10.60;;;3.90;99.90;;;;;;5118475;28;20443;-91
2021/03/09 08:26:47;;;;;;;17.87;11.77;;;4.10;99.90;;;;;;5117982;28;20524;-86
2021/03/09 08:29:33;;;;;;;18.03;11.77;;;4.20;99.90;;;;;;5117211;28;20478;-86
2021/03/09 08:32:36;;;;;;;16.13;11.10;;;4.40;99.90;;;;;;5117314;28;20431;-86
2021/03/09 08:35:34;;;;;;;14.30;9.90;;;4.40;99.90;;;;;;5117423;28;20847;-86
2021/03/09 08:38:15;;;;;;;15.53;10.87;;;4.60;99.90;;;;;;5082544;27;20668;-83
2021/03/09 08:41:08;;;;;;;19.17;10.90;;;4.90;99.90;;;;;;5117097;28;20517;-83
2021/03/09 08:43:36;;;;;;;19.07;12.03;;;5.00;99.90;;;;;;5116884;28;20451;-83
2021/03/09 08:46:07;;;;;;;15.30;10.87;;;5.20;99.90;;;;;;5116476;28;20815;-83
2021/03/09 08:48:52;;;;;;;15.53;10.87;;;5.20;99.90;;;;;;5116772;27;20487;-82
2021/03/09 08:51:52;;;;;;;18.30;12.17;;;5.40;99.90;;;;;;5116801;28;20531;-83
2021/03/09 08:54:36;;;;;;;15.20;10.70;;;5.50;99.90;;;;;;5116676;28;20522;-82
2021/03/09 08:57:05;;;;;;;17.47;10.80;;;5.70;99.90;;;;;;5116593;28;20455;-82
2021/03/09 08:59:33;;;;;;;14.60;10.13;;;5.70;99.90;;;;;;5116153;28;21040;-82
2021/03/09 09:02:15;;;;;;;15.27;11.00;;;5.80;99.90;;;;;;5117063;28;20428;-88
2021/03/09 09:04:43;;;;;;;19.23;11.70;;;6.00;99.90;;;;;;5116349;28;20438;-82
2021/03/09 09:07:17;;;;;;;20.30;11.63;;;6.40;99.90;;;;;;5116300;28;20467;-83
2021/03/09 09:09:44;;;;;;;17.07;11.43;;;6.80;99.90;;;;;;5116068;28;20508;-83
2021/03/09 09:12:26;;;;;;;13.77;10.50;;;7.30;99.90;;;;;;5116290;28;20439;-83
2021/03/09 09:15:08;;;;;;;14.70;9.63;;;8.10;99.00;;;;;;5116204;28;20453;-85
2021/03/09 09:17:35;;;;;;;16.70;10.13;;;8.60;96.80;;;;;;5116383;27;20440;-84
2021/03/09 09:20:05;;;;;;;16.33;10.27;;;9.10;95.00;;;;;;5117653;28;20482;-82
2021/03/09 09:22:31;;;;;;;16.47;10.67;;;9.20;93.70;;;;;;5115760;28;20458;-83
2021/03/09 09:24:59;;;;;;;17.40;11.00;;;9.40;92.60;;;;;;5116019;28;20480;-83
2021/03/09 09:27:25;;;;;;;17.80;11.57;;;9.60;91.20;;;;;;5115455;28;20958;-83
2021/03/09 09:29:54;;;;;;;13.47;10.70;;;9.70;90.80;;;;;;5115988;28;20793;-83
2021/03/09 09:32:21;;;;;;;11.13;7.97;;;9.70;89.50;;;;;;5115857;28;20518;-82
2021/03/09 09:34:56;;;;;;;9.27;7.07;;;9.80;84.30;;;;;;5115829;28;20439;-82
2021/03/09 09:37:22;;;;;;;10.00;8.20;;;10.00;74.90;;;;;;5115962;28;20426;-83
2021/03/09 09:39:48;;;;;;;14.23;9.93;;;10.00;76.10;;;;;;5115715;28;20487;-82
2021/03/09 09:42:18;;;;;;;14.67;10.80;;;10.10;78.80;;;;;;5115829;28;20442;-87
2021/03/09 09:44:45;;;;;;;12.50;9.00;;;10.10;78.60;;;;;;5115819;28;20395;-82
2021/03/09 09:47:12;;;;;;;16.00;10.47;;;10.20;76.30;;;;;;5115350;28;20888;-82
2021/03/09 09:49:43;;;;;;;14.40;11.30;;;10.30;76.70;;;;;;5115876;28;20447;-87
2021/03/09 09:52:14;;;;;;;14.10;11.07;;;9.90;77.80;;;;;;5115923;28;20488;-87
2021/03/09 09:54:40;;;;;;;12.20;9.13;;;10.30;78.00;;;;;;5116101;28;20827;-87
2021/03/09 09:57:08;;;;;;;13.10;9.80;;;10.60;75.50;;;;;;5115905;28;20486;-87
2021/03/09 09:59:35;;;;;;;13.20;10.57;;;10.60;74.10;;;;;;5115249;28;20490;-83
2021/03/09 10:02:16;;;;;;;13.00;9.67;;;10.60;73.80;;;;;;5115451;28;20508;-86
2021/03/09 10:04:44;;;;;;;14.20;9.87;;;11.10;71.80;;;;;;5115579;28;20768;-86
2021/03/09 10:07:14;;;;;;;14.27;10.03;;;11.40;70.10;;;;;;5114999;28;20475;-82
2021/03/09 10:09:41;;;;;;;15.33;9.53;;;11.20;67.50;;;;;;5115186;28;20443;-82
2021/03/09 10:12:08;;;;;;;10.67;9.20;;;11.30;69.60;;;;;;5115149;28;20447;-85
2021/03/09 10:14:52;;;;;;;14.73;10.33;;;10.90;69.00;;;;;;5115252;28;20454;-85
2021/03/09 10:17:19;;;;;;;11.10;9.00;;;11.00;69.10;;;;;;5115109;28;20431;-82
2021/03/09 10:19:46;;;;;;;14.37;10.30;;;10.90;70.00;;;;;;5115087;28;20474;-87
2021/03/09 10:22:19;;;;;;;11.13;9.50;;;11.30;68.60;;;;;;5115133;28;20459;-87
2021/03/09 10:24:47;;;;;;;13.07;9.93;;;11.50;67.00;;;;;;5115193;28;20465;-87
2021/03/09 10:27:15;;;;;;;12.53;8.73;;;11.20;66.40;;;;;;5114712;28;20958;-85
2021/03/09 10:29:42;;;;;;;10.60;8.93;;;11.60;68.40;;;;;;5114811;28;20479;-87
2021/03/09 10:32:15;;;;;;;12.50;9.13;;;11.80;64.00;;;;;;5114707;28;20961;-82
2021/03/09 10:34:42;;;;;;;10.27;8.17;;;12.20;64.20;;;;;;5114060;28;20435;-82
2021/03/09 10:37:12;;;;;;;10.33;8.03;;;12.90;60.40;;;;;;5114557;28;20463;-82
2021/03/09 10:39:40;;;;;;;12.90;8.57;;;13.20;59.40;;;;;;5114240;28;20468;-82
2021/03/09 10:42:28;;;;;;;9.83;8.00;;;13.40;58.30;;;;;;5114565;28;20423;-82
2021/03/09 10:44:56;;;;;;;9.37;6.83;;;14.00;56.90;;;;;;5114170;28;20797;-82
2021/03/09 10:47:23;;;;;;;7.50;6.37;;;13.70;53.00;;;;;;5114612;28;20457;-87
2021/03/09 10:49:49;;;;;;;7.90;6.67;;;13.70;53.50;;;;;;5114790;28;20424;-88
2021/03/09 10:52:17;;;;;;;7.67;6.90;;;13.50;53.20;;;;;;5114918;28;20476;-87
2021/03/09 10:54:43;;;;;;;9.40;6.97;;;14.10;52.00;;;;;;5114421;28;20427;-87
2021/03/09 10:57:10;;;;;;;8.80;7.20;;;14.30;52.00;;;;;;5114090;28;20496;-82
2021/03/09 10:59:37;;;;;;;8.23;6.50;;;14.80;51.40;;;;;;5113967;28;20474;-82
2021/03/09 11:02:07;;;;;;;8.20;6.87;;;14.90;48.50;;;;;;5113972;28;20967;-82
2021/03/09 11:04:33;;;;;;;8.03;7.00;;;14.70;48.30;;;;;;5114281;28;20419;-83
2021/03/09 11:07:00;;;;;;;7.53;6.17;;;14.10;48.40;;;;;;5113849;28;20459;-83
2021/03/09 11:09:27;;;;;;;6.80;6.10;;;13.50;49.80;;;;;;5113851;28;20911;-83
2021/03/09 11:11:53;;;;;;;12.07;7.70;;;13.00;50.10;;;;;;5114400;28;20427;-86
2021/03/09 11:14:19;;;;;;;8.30;6.70;;;12.20;52.40;;;;;;5115360;28;20436;-86
2021/03/09 11:16:46;;;;;;;6.87;6.07;;;11.70;52.50;;;;;;5114436;28;20519;-87
2021/03/09 11:19:12;;;;;;;6.40;5.80;;;11.60;52.00;;;;;;5114512;28;20428;-87
2021/03/09 11:21:38;;;;;;;7.47;6.53;;;11.40;52.10;;;;;;5114208;28;20475;-86
2021/03/09 11:24:05;;;;;;;7.27;5.93;;;11.40;52.20;;;;;;5114156;28;20439;-86
2021/03/09 11:26:32;;;;;;;8.53;6.03;;;11.10;51.80;;;;;;5113964;28;21011;-82
2021/03/09 11:28:59;;;;;;;8.90;7.07;;;11.00;52.10;;;;;;5113496;28;20536;-81
2021/03/09 11:31:25;;;;;;;8.07;6.80;;;11.00;52.90;;;;;;5113926;28;20423;-82
2021/03/09 11:33:52;;;;;;;8.83;6.77;;;10.90;52.40;;;;;;5113890;28;20435;-82
2021/03/09 11:36:19;;;;;;;7.83;6.60;;;10.80;53.10;;;;;;5113503;28;20841;-81
2021/03/09 11:38:46;;;;;;;7.20;5.97;;;10.70;54.20;;;;;;5113863;28;20424;-82
2021/03/09 11:41:14;;;;;;;12.00;6.87;;;10.40;54.60;;;;;;5114161;28;20993;-81
2021/03/09 11:43:41;;;;;;;8.77;6.60;;;10.10;55.20;;;;;;5114584;28;20435;-81
2021/03/09 11:46:08;;;;;;;8.03;6.10;;;10.10;55.60;;;;;;5118985;28;20519;-82
2021/03/09 11:48:34;;;;;;;7.47;6.67;;;10.20;55.40;;;;;;5118613;28;20419;-80
2021/03/09 11:51:01;;;;;;;10.13;6.93;;;10.30;54.90;;;;;;5117803;28;20431;-82
2021/03/09 11:53:27;;;;;;;7.23;6.20;;;10.50;54.50;;;;;;5118004;28;20439;-82
2021/03/09 11:55:54;;;;;;;7.53;6.30;;;10.50;54.70;;;;;;5117829;28;20953;-87
2021/03/09 11:58:20;;;;;;;9.47;7.00;;;10.40;53.50;;;;;;5117774;28;20941;-86
2021/03/09 12:00:48;;;;;;;9.10;6.60;;;10.50;54.10;;;;;;5117938;28;20466;-86
2021/03/09 12:03:14;;;;;;;8.50;7.20;;;10.50;54.60;;;;;;5118284;28;20430;-86
2021/03/09 12:05:40;;;;;;;7.60;6.53;;;10.40;54.60;;;;;;5117458;28;20477;-82
2021/03/09 12:08:06;;;;;;;9.50;7.20;;;10.40;53.60;;;;;;5117281;28;20868;-81
2021/03/09 12:10:33;;;;;;;7.47;6.67;;;10.50;53.70;;;;;;5117598;28;20438;-86
2021/03/09 12:12:59;;;;;;;9.93;6.83;;;10.50;53.10;;;;;;5117634;28;20442;-86
2021/03/09 12:15:25;;;;;;;9.90;6.87;;;10.50;53.30;;;;;;5117844;28;20475;-86
2021/03/09 12:17:52;;;;;;;11.83;7.30;;;10.40;52.80;;;;;;5117615;28;20454;-86
2021/03/09 12:20:19;;;;;;;7.70;6.20;;;10.30;52.90;;;;;;5117537;28;20479;-85
2021/03/09 12:22:45;;;;;;;9.67;7.07;;;10.10;53.10;;;;;;5117630;28;20446;-86
2021/03/09 12:25:12;;;;;;;9.43;7.37;;;9.90;54.60;;;;;;5117649;28;20466;-86
2021/03/09 12:27:39;;;;;;;7.90;7.10;;;9.70;55.20;;;;;;5117198;28;20467;-86
2021/03/09 12:30:07;;;;;;;8.93;7.93;;;9.60;56.00;;;;;;5118099;28;20427;-86
2021/03/09 12:32:33;;;;;;;11.83;9.33;;;9.70;55.50;;;;;;5117672;28;20443;-86
2021/03/09 12:35:01;;;;;;;9.40;7.20;;;9.70;54.60;;;;;;5117002;28;20800;-86
2021/03/09 12:37:27;;;;;;;10.63;7.40;;;9.60;54.60;;;;;;5117362;28;20480;-86
2021/03/09 12:39:54;;;;;;;9.07;6.97;;;9.60;55.50;;;;;;5117021;28;20470;-82
2021/03/09 12:42:20;;;;;;;10.20;7.10;;;9.50;55.30;;;;;;5116911;28;20443;-82
2021/03/09 12:44:46;;;;;;;8.83;7.00;;;9.20;54.90;;;;;;5116951;28;20451;-82
2021/03/09 12:47:12;;;;;;;10.90;7.53;;;9.00;56.30;;;;;;5116761;28;20451;-82
2021/03/09 12:49:39;;;;;;;8.03;7.00;;;9.00;56.30;;;;;;5116822;27;20450;-82
2021/03/09 12:52:07;;;;;;;8.23;6.60;;;9.00;57.00;;;;;;5116471;27;20446;-82